createdAt,value
2023-03-30T00:02:23.198Z,84.69
2023-03-30T00:06:26.913Z,84.65
2023-03-30T00:10:31.004Z,84.56
2023-03-30T00:14:37.756Z,84.49
2023-03-30T00:18:41.471Z,84.42
2023-03-30T00:22:45.882Z,84.64
2023-03-30T00:26:49.501Z,84.72
2023-03-30T00:30:53.991Z,84.71
2023-03-30T00:34:57.702Z,84.86
2023-03-30T00:39:01.576Z,84.59
2023-03-30T00:43:07.651Z,84.80
2023-03-30T00:47:11.657Z,84.99
2023-03-30T00:51:16.297Z,85.13
2023-03-30T00:55:23.091Z,85.14
2023-03-30T00:59:27.045Z,85.05
2023-03-30T01:03:45.937Z,85.01
2023-03-30T01:07:50.106Z,84.78
2023-03-30T01:11:54.014Z,84.64
2023-03-30T01:16:03.897Z,84.52
2023-03-30T01:20:25.826Z,84.39
2023-03-30T01:25:06.660Z,84.42
2023-03-30T01:29:13.144Z,84.25
2023-03-30T01:33:55.384Z,84.25
2023-03-30T01:38:23.468Z,84.13
2023-03-30T01:43:13.208Z,83.74
2023-03-30T01:47:16.748Z,83.52
2023-03-30T01:51:24.276Z,83.30
2023-03-30T01:55:37.126Z,83.02
2023-03-30T01:59:48.589Z,82.97
2023-03-30T02:03:57.405Z,83.00
2023-03-30T02:08:07.974Z,82.63
2023-03-30T02:12:12.830Z,82.88
2023-03-30T02:16:22.786Z,82.70
2023-03-30T02:20:26.138Z,82.96
2023-03-30T02:24:32.540Z,83.03
2023-03-30T02:28:36.334Z,83.20
2023-03-30T02:32:46.634Z,82.95
2023-03-30T02:37:19.015Z,82.85
2023-03-30T02:41:47.762Z,83.12
2023-03-30T02:45:53.118Z,83.05
2023-03-30T02:50:06.264Z,82.86
2023-03-30T02:54:24.122Z,83.41
2023-03-30T02:58:37.072Z,83.67
2023-03-30T03:02:44.109Z,83.71
2023-03-30T03:06:48.511Z,84.20
2023-03-30T03:10:52.081Z,84.91
2023-03-30T03:14:55.423Z,85.91
2023-03-30T03:18:59.418Z,86.28
2023-03-30T03:23:02.727Z,87.14
2023-03-30T03:27:06.140Z,87.45
2023-03-30T03:31:09.427Z,88.08
2023-03-30T03:35:12.969Z,88.54
2023-03-30T03:39:16.364Z,88.77
2023-03-30T03:43:20.047Z,89.15
2023-03-30T03:47:23.297Z,89.82
2023-03-30T03:51:26.728Z,89.81
2023-03-30T03:55:30.759Z,89.96
2023-03-30T03:59:34.328Z,89.69
2023-03-30T04:03:37.535Z,89.52
2023-03-30T04:07:41.780Z,89.18
2023-03-30T04:11:45.149Z,88.39
2023-03-30T04:15:48.652Z,88.19
2023-03-30T04:19:54.018Z,87.79
2023-03-30T04:23:57.484Z,87.57
2023-03-30T04:28:01.200Z,87.61
2023-03-30T04:32:05.117Z,87.66
2023-03-30T04:36:09.104Z,87.37
2023-03-30T04:40:13.465Z,87.23
2023-03-30T04:44:20.610Z,87.47
2023-03-30T04:48:24.548Z,87.01
2023-03-30T04:52:28.298Z,86.65
2023-03-30T04:56:32.338Z,86.33
2023-03-30T05:00:35.604Z,86.34
2023-03-30T05:04:39.310Z,86.09
2023-03-30T05:08:42.570Z,85.69
2023-03-30T05:12:46.098Z,85.58
2023-03-30T05:16:49.747Z,86.02
2023-03-30T05:20:58.751Z,86.55
2023-03-30T05:25:02.412Z,86.55
2023-03-30T05:29:06.018Z,86.42
2023-03-30T05:33:10.253Z,86.83
2023-03-30T05:37:13.769Z,86.99
2023-03-30T05:41:17.594Z,86.94
2023-03-30T05:45:20.996Z,87.16
2023-03-30T05:49:24.307Z,87.33
2023-03-30T05:53:27.589Z,87.24
2023-03-30T05:57:31.372Z,87.47
2023-03-30T06:01:34.854Z,87.16
2023-03-30T06:05:40.094Z,87.58
2023-03-30T06:09:43.874Z,87.47
2023-03-30T06:13:48.822Z,87.34
2023-03-30T06:17:52.987Z,86.84
2023-03-30T06:21:56.614Z,86.91
2023-03-30T06:26:01.239Z,86.67
2023-03-30T06:30:04.955Z,86.50
2023-03-30T06:34:08.300Z,86.79
2023-03-30T06:38:11.538Z,86.29
2023-03-30T06:42:14.897Z,86.31
2023-03-30T06:46:18.643Z,86.09
2023-03-30T06:50:22.302Z,86.17
2023-03-30T06:54:25.812Z,85.09
2023-03-30T06:58:30.498Z,85.23
2023-03-30T07:02:34.199Z,84.44
2023-03-30T07:06:37.826Z,83.88
2023-03-30T07:10:41.417Z,83.25
2023-03-30T07:14:44.768Z,83.12
2023-03-30T07:18:48.262Z,83.31
2023-03-30T07:22:52.308Z,82.53
2023-03-30T07:26:55.938Z,81.12
2023-03-30T07:31:07.655Z,79.02
2023-03-30T07:35:11.508Z,79.72
2023-03-30T07:39:14.888Z,78.64
2023-03-30T07:43:18.189Z,78.68
2023-03-30T07:47:21.664Z,78.93
2023-03-30T07:51:27.832Z,78.74
2023-03-30T07:55:32.124Z,79.42
2023-03-30T07:59:35.994Z,79.75
2023-03-30T08:03:40.055Z,78.63
2023-03-30T08:07:43.993Z,78.79
2023-03-30T08:11:47.452Z,78.62
2023-03-30T08:15:52.872Z,79.39
2023-03-30T08:19:58.956Z,78.10
2023-03-30T08:24:02.483Z,77.49
2023-03-30T08:28:06.241Z,76.29
2023-03-30T08:32:09.728Z,76.24
2023-03-30T08:36:13.274Z,76.47
2023-03-30T08:40:19.366Z,76.14
2023-03-30T08:44:27.654Z,75.75
2023-03-30T08:48:38.070Z,75.59
2023-03-30T08:52:42.294Z,76.25
2023-03-30T08:56:59.786Z,76.13
2023-03-30T09:01:28.214Z,77.05
2023-03-30T09:05:37.950Z,77.31
2023-03-30T09:09:47.182Z,77.12
2023-03-30T09:13:52.176Z,75.04
2023-03-30T09:18:23.139Z,74.96
2023-03-30T09:22:32.670Z,75.05
2023-03-30T09:26:55.842Z,74.00
2023-03-30T09:31:18.221Z,73.72
2023-03-30T09:35:27.227Z,74.65
2023-03-30T09:39:34.303Z,74.83
2023-03-30T09:43:46.480Z,74.45
2023-03-30T09:47:49.873Z,72.77
2023-03-30T09:52:00.976Z,75.26
2023-03-30T09:56:17.018Z,75.92
2023-03-30T10:00:29.521Z,74.16
2023-03-30T10:04:32.853Z,73.55
2023-03-30T10:08:56.818Z,72.52
2023-03-30T10:13:06.736Z,72.40
2023-03-30T10:17:21.788Z,71.12
2023-03-30T10:21:28.357Z,71.09
2023-03-30T10:25:34.071Z,71.17
2023-03-30T10:29:37.715Z,71.37
2023-03-30T10:33:44.119Z,71.33
2023-03-30T10:37:50.328Z,71.79
2023-03-30T10:41:56.353Z,73.64
2023-03-30T10:46:23.443Z,75.12
2023-03-30T10:50:46.420Z,76.09
2023-03-30T10:55:11.236Z,76.53
2023-03-30T10:59:23.576Z,78.16
2023-03-30T11:03:32.918Z,80.03
2023-03-30T11:07:43.615Z,81.52
2023-03-30T11:11:55.674Z,82.67
2023-03-30T11:16:35.924Z,82.15
2023-03-30T11:20:59.380Z,82.52
2023-03-30T11:25:15.790Z,82.09
2023-03-30T11:29:28.825Z,82.46
2023-03-30T11:33:45.602Z,83.74
2023-03-30T11:38:09.635Z,86.22
2023-03-30T11:42:18.322Z,89.12
2023-03-30T11:46:30.410Z,91.90
2023-03-30T11:50:46.038Z,91.77
2023-03-30T11:55:16.984Z,89.46
2023-03-30T11:59:49.399Z,88.15
2023-03-30T12:04:08.898Z,86.95
2023-03-30T12:08:40.259Z,86.39
2023-03-30T12:12:45.884Z,86.71
2023-03-30T12:16:55.381Z,86.97
2023-03-30T12:21:20.507Z,87.67
2023-03-30T12:25:33.161Z,87.43
2023-03-30T12:34:07.596Z,86.17
2023-03-30T12:38:17.754Z,87.28
2023-03-30T12:42:27.143Z,86.12
2023-03-30T12:46:58.881Z,86.26
2023-03-30T12:51:14.158Z,86.25
2023-03-30T12:55:38.024Z,86.98
2023-03-30T12:59:56.443Z,88.02
2023-03-30T13:04:07.885Z,87.65
2023-03-30T13:08:41.646Z,88.22
2023-03-30T13:12:49.447Z,87.23
2023-03-30T13:16:53.453Z,85.03
2023-03-30T13:20:56.822Z,83.76
2023-03-30T13:25:22.275Z,84.26
2023-03-30T13:29:31.100Z,81.92
2023-03-30T13:33:38.911Z,81.38
2023-03-30T13:38:16.182Z,82.02
2023-03-30T13:42:42.538Z,82.27
2023-03-30T13:47:06.799Z,85.09
2023-03-30T13:51:16.734Z,86.75
2023-03-30T13:55:33.650Z,86.66
2023-03-30T13:59:42.875Z,84.20
2023-03-30T14:04:01.031Z,83.26
2023-03-30T14:08:10.426Z,83.87
2023-03-30T14:12:15.221Z,83.61
2023-03-30T14:16:22.885Z,83.78
2023-03-30T14:20:46.966Z,83.49
2023-03-30T14:24:58.716Z,83.63
2023-03-30T14:29:21.047Z,83.79
2023-03-30T14:33:35.061Z,84.05
2023-03-30T14:37:38.376Z,84.62
2023-03-30T14:41:42.607Z,83.03
2023-03-30T14:45:46.176Z,81.53
2023-03-30T14:49:52.015Z,81.27
2023-03-30T14:53:56.161Z,81.07
2023-03-30T14:57:59.402Z,81.03
2023-03-30T15:02:03.946Z,81.30
2023-03-30T15:06:08.492Z,81.86
2023-03-30T15:10:22.553Z,82.86
2023-03-30T15:14:27.355Z,83.60
2023-03-30T15:18:33.924Z,84.19
2023-03-30T15:22:44.906Z,84.66
2023-03-30T15:26:50.256Z,85.83
2023-03-30T15:30:54.806Z,86.77
2023-03-30T15:35:14.787Z,86.64
2023-03-30T15:39:28.050Z,85.92
2023-03-30T15:43:33.792Z,85.48
2023-03-30T15:47:38.975Z,85.96
2023-03-30T15:51:53.766Z,86.46
2023-03-30T15:55:59.773Z,86.79
2023-03-30T16:00:12.875Z,87.21
2023-03-30T16:04:19.163Z,87.14
2023-03-30T16:08:23.014Z,87.09
2023-03-30T16:12:29.816Z,86.07
2023-03-30T16:16:35.232Z,86.29
2023-03-30T16:20:39.161Z,86.94
2023-03-30T16:24:43.767Z,86.64
2023-03-30T16:28:51.374Z,86.03
2023-03-30T16:32:55.242Z,84.98
2023-03-30T16:36:58.829Z,84.27
2023-03-30T16:41:04.083Z,84.16
2023-03-30T16:45:08.618Z,82.66
2023-03-30T16:49:17.974Z,80.19
2023-03-30T16:53:21.649Z,79.45
2023-03-30T16:57:25.588Z,79.46
2023-03-30T17:01:30.470Z,79.74
2023-03-30T17:05:34.422Z,79.99
2023-03-30T17:09:38.273Z,80.86
2023-03-30T17:13:43.328Z,83.35
2023-03-30T17:17:48.089Z,85.61
2023-03-30T17:21:52.413Z,86.72
2023-03-30T17:25:58.686Z,87.37
2023-03-30T17:30:02.334Z,88.26
2023-03-30T17:34:07.530Z,88.95
2023-03-30T17:38:12.869Z,89.91
2023-03-30T17:42:19.088Z,90.52
2023-03-30T17:46:25.326Z,91.65
2023-03-30T17:50:49.839Z,92.08
2023-03-30T17:54:54.345Z,91.96
2023-03-30T18:03:22.672Z,91.31
2023-03-30T18:08:14.768Z,91.08
2023-03-30T18:12:18.331Z,90.75
2023-03-30T18:16:24.489Z,92.20
2023-03-30T18:20:32.777Z,94.90
2023-03-30T18:24:35.991Z,97.47
2023-03-30T18:28:42.555Z,98.61
2023-03-30T18:32:47.411Z,100.00
2023-03-30T18:36:51.132Z,100.00
2023-03-30T18:40:58.085Z,100.00
2023-03-30T18:45:01.646Z,100.00
2023-03-30T18:49:05.006Z,100.00
2023-03-30T18:53:13.707Z,100.00
2023-03-30T18:57:17.077Z,100.00
2023-03-30T19:01:20.554Z,100.00
2023-03-30T19:05:26.535Z,100.00
2023-03-30T19:09:42.112Z,100.00
2023-03-30T19:13:47.351Z,100.00
2023-03-30T19:17:51.621Z,100.00
2023-03-30T19:21:58.302Z,100.00
2023-03-30T19:26:01.720Z,100.00
2023-03-30T19:30:06.185Z,100.00
2023-03-30T19:34:09.423Z,100.00
2023-03-30T19:38:13.701Z,100.00
2023-03-30T19:42:17.049Z,100.00
2023-03-30T19:46:20.864Z,100.00
2023-03-30T19:50:25.535Z,100.00
2023-03-30T19:54:29.560Z,100.00
2023-03-30T19:58:33.056Z,100.00
2023-03-30T20:02:36.844Z,100.00
2023-03-30T20:06:40.328Z,100.00
2023-03-30T20:10:48.390Z,100.00
2023-03-30T20:14:52.176Z,100.00
2023-03-30T20:18:58.118Z,100.00
2023-03-30T20:23:01.996Z,100.00
2023-03-30T20:27:05.981Z,100.00
2023-03-30T20:31:10.131Z,100.00
2023-03-30T20:35:13.836Z,100.00
2023-03-30T20:39:17.624Z,100.00
2023-03-30T20:43:22.136Z,100.00
2023-03-30T20:47:30.581Z,100.00
2023-03-30T20:51:37.682Z,100.00
2023-03-30T20:55:43.082Z,100.00
2023-03-30T20:59:49.093Z,100.00
2023-03-30T21:04:00.567Z,100.00
2023-03-30T21:08:04.080Z,100.00
2023-03-30T21:12:08.848Z,100.00
2023-03-30T21:16:12.622Z,100.00
2023-03-30T21:20:16.139Z,100.00
2023-03-30T21:24:19.555Z,100.00
2023-03-30T21:28:24.662Z,100.00
2023-03-30T21:32:30.751Z,100.00
2023-03-30T21:36:34.942Z,100.00
2023-03-30T21:40:38.347Z,100.00
2023-03-30T21:44:41.706Z,100.00
2023-03-30T21:48:46.421Z,100.00
2023-03-30T21:52:49.780Z,100.00
2023-03-30T21:56:53.060Z,100.00
2023-03-30T22:01:08.980Z,100.00
2023-03-30T22:05:15.094Z,100.00
2023-03-30T22:09:18.919Z,100.00
2023-03-30T22:13:22.222Z,100.00
2023-03-30T22:17:35.199Z,100.00
2023-03-30T22:21:38.508Z,100.00
2023-03-30T22:25:42.785Z,100.00
2023-03-30T22:29:46.602Z,100.00
2023-03-30T22:33:49.989Z,100.00
2023-03-30T22:37:53.941Z,100.00
2023-03-30T22:41:58.937Z,100.00
2023-03-30T22:46:04.370Z,100.00
2023-03-30T22:50:08.149Z,100.00
2023-03-30T22:54:11.377Z,100.00
2023-03-30T22:58:16.004Z,100.00
2023-03-30T23:02:19.292Z,100.00
2023-03-30T23:06:22.779Z,99.96
2023-03-30T23:10:28.174Z,99.35
2023-03-30T23:14:54.123Z,99.42
2023-03-30T23:19:11.528Z,99.97
2023-03-30T23:23:48.974Z,100.00
2023-03-30T23:37:33.050Z,100.00
2023-03-30T23:42:10.002Z,100.00
2023-03-30T23:50:38.098Z,100.00
2023-03-30T23:55:26.045Z,100.00
